Terminal Aerodrome Forecast
Issued by NWS

Home | Current Version | Previous Version | Graphics & Text | Print | Product List | Glossary On
Versions: 1 2 3 4 5 6 7 8 9 10 11 12 13 14 15 16 17 18 19 20 21 22 23 24 25 26 27
000
FTUS43 KBIS 221721
TAFJMS
TAF
KJMS 221721Z 2218/2318 18019G28KT P6SM FEW025 FEW080
     FM230500 19007KT 6SM -TSRA BKN030CB
     FM230700 23007KT P6SM VCSH OVC060
     FM231000 29007KT P6SM SCT200=

USA.gov is the U.S. government's official web portal to all federal, state and local government web resources and services.